Time;durP1;ratioP1;P1;durP2;ratioP2;P2;SDS_P1;SDS_P2;PMS_P1;PMS_P2;Temp;Humidity;BMP_temperature;BMP_pressure;BME280_temperature;BME280_humidity;BME280_pressure;Samples;Min_cycle;Max_cycle;Signal;HPM_P1;HPM_P2
2023/05/27 00:01:01;;;;;;;;;;;11.20;99.90;;;;;;5010655;28;20016;-75
2023/05/27 00:03:26;;;;;;;;;;;11.20;99.90;;;;;;5009813;28;19926;-76
2023/05/27 00:05:52;;;;;;;;;;;11.10;99.90;;;;;;5011095;28;20403;-75
2023/05/27 00:08:18;;;;;;;;;;;11.10;99.90;;;;;;5010195;28;20328;-76
2023/05/27 00:10:43;;;;;;;;;;;11.10;99.90;;;;;;5010323;28;19925;-76
2023/05/27 00:13:09;;;;;;;;;;;11.10;99.90;;;;;;5010498;28;20008;-75
2023/05/27 00:15:34;;;;;;;;;;;11.00;99.90;;;;;;5009213;28;19933;-76
2023/05/27 00:18:01;;;;;;;;;;;11.00;99.90;;;;;;5017617;28;19925;-75
2023/05/27 00:20:27;;;;;;;;;;;11.00;99.90;;;;;;5015659;28;20291;-76
2023/05/27 00:22:53;;;;;;;;;;;11.00;99.90;;;;;;5016138;28;19929;-75
2023/05/27 00:25:20;;;;;;;;;;;11.00;99.90;;;;;;5022169;28;19925;-76
2023/05/27 00:27:46;;;;;;;;;;;11.00;99.90;;;;;;5017819;28;20339;-75
2023/05/27 00:30:12;;;;;;;;;;;11.00;99.90;;;;;;5016564;28;20028;-75
2023/05/27 00:32:37;;;;;;;;;;;11.00;99.90;;;;;;5014542;28;19929;-75
2023/05/27 00:35:03;;;;;;;;;;;10.90;99.90;;;;;;5019361;28;19933;-75
2023/05/27 00:37:28;;;;;;;;;;;10.90;99.90;;;;;;5011540;28;20059;-75
2023/05/27 00:39:54;;;;;;;;;;;10.90;99.90;;;;;;5024841;28;20011;-75
2023/05/27 00:42:20;;;;;;;;;;;10.90;99.90;;;;;;5038140;28;19979;-76
2023/05/27 00:44:45;;;;;;;;;;;10.90;99.90;;;;;;5024033;28;19925;-75
2023/05/27 00:47:11;;;;;;;;;;;10.90;99.90;;;;;;5014383;28;20361;-75
2023/05/27 00:49:37;;;;;;;;;;;10.90;99.90;;;;;;5024916;28;19925;-75
2023/05/27 00:52:03;;;;;;;;;;;10.90;99.90;;;;;;5021092;28;19925;-75
2023/05/27 00:54:29;;;;;;;;;;;10.90;99.90;;;;;;5012646;28;20012;-75
2023/05/27 00:56:55;;;;;;;;;;;10.90;99.90;;;;;;5013690;28;19968;-75
2023/05/27 00:59:21;;;;;;;;;;;10.90;99.90;;;;;;5024145;28;20486;-75
2023/05/27 01:01:48;;;;;;;;;;;10.80;99.90;;;;;;5008838;28;20307;-75
2023/05/27 01:04:14;;;;;;;;;;;10.80;99.90;;;;;;5042772;28;19925;-75
2023/05/27 01:06:47;;;;;;;;;;;10.80;99.90;;;;;;5031170;28;19933;-75
2023/05/27 01:09:15;;;;;;;;;;;10.80;99.90;;;;;;5035168;28;19925;-75
2023/05/27 01:11:42;;;;;;;;;;;10.80;99.90;;;;;;5029868;28;20040;-75
2023/05/27 01:14:10;;;;;;;;;;;10.80;99.90;;;;;;5012347;28;20299;-76
2023/05/27 01:16:39;;;;;;;;;;;10.80;99.90;;;;;;5034920;28;19925;-75
2023/05/27 01:19:09;;;;;;;;;;;10.80;99.90;;;;;;5035219;28;19925;-76
2023/05/27 01:21:39;;;;;;;;;;;10.80;99.90;;;;;;5036655;28;20399;-75
2023/05/27 01:24:04;;;;;;;;;;;10.80;99.90;;;;;;5034403;28;20411;-76
2023/05/27 01:26:30;;;;;;;;;;;10.80;99.90;;;;;;5037369;28;19984;-75
2023/05/27 01:28:56;;;;;;;;;;;10.80;99.90;;;;;;5042728;28;19972;-75
2023/05/27 01:31:23;;;;;;;;;;;10.80;99.90;;;;;;5020950;28;19988;-75
2023/05/27 01:33:52;;;;;;;;;;;10.90;99.90;;;;;;5003130;28;19925;-75
2023/05/27 01:36:20;;;;;;;;;;;10.80;99.90;;;;;;5013944;28;19925;-75
2023/05/27 01:38:47;;;;;;;;;;;10.90;99.90;;;;;;5042502;28;20720;-75
2023/05/27 01:41:14;;;;;;;;;;;10.90;99.90;;;;;;5039769;28;19971;-75
2023/05/27 01:43:40;;;;;;;;;;;10.90;99.90;;;;;;5042987;28;19925;-76
2023/05/27 01:46:05;;;;;;;;;;;10.90;99.90;;;;;;5005862;28;19990;-75
2023/05/27 01:48:31;;;;;;;;;;;10.90;99.90;;;;;;5016898;28;19926;-75
2023/05/27 01:50:56;;;;;;;;;;;10.80;99.90;;;;;;5032522;28;19925;-75
2023/05/27 01:53:22;;;;;;;;;;;10.80;99.90;;;;;;5040780;28;19932;-75
2023/05/27 01:55:47;;;;;;;;;;;10.80;99.90;;;;;;5026937;28;19925;-75
2023/05/27 01:58:13;;;;;;;;;;;10.80;99.90;;;;;;5037884;28;19932;-75
2023/05/27 02:00:39;;;;;;;;;;;10.80;99.90;;;;;;5037858;28;19928;-75
2023/05/27 02:03:04;;;;;;;;;;;10.80;99.90;;;;;;5040527;28;19933;-75
2023/05/27 02:05:30;;;;;;;;;;;10.70;99.90;;;;;;5032201;28;19925;-75
2023/05/27 02:07:55;;;;;;;;;;;10.70;99.90;;;;;;5035576;28;19940;-75
2023/05/27 02:10:21;;;;;;;;;;;10.70;99.90;;;;;;5047617;28;19971;-75
2023/05/27 02:12:47;;;;;;;;;;;10.70;99.90;;;;;;5039978;28;20016;-75
2023/05/27 02:15:13;;;;;;;;;;;10.70;99.90;;;;;;5042484;28;19929;-75
2023/05/27 02:17:39;;;;;;;;;;;10.70;99.90;;;;;;5021715;28;19932;-75
2023/05/27 02:20:04;;;;;;;;;;;10.70;99.90;;;;;;5038969;28;19931;-75
2023/05/27 02:22:30;;;;;;;;;;;10.70;99.90;;;;;;5024212;28;19929;-75
2023/05/27 02:24:55;;;;;;;;;;;10.60;99.90;;;;;;5034263;28;19933;-76
2023/05/27 02:27:21;;;;;;;;;;;10.70;99.90;;;;;;5041507;28;20296;-75
2023/05/27 02:29:47;;;;;;;;;;;10.70;99.90;;;;;;5041636;28;19929;-76
2023/05/27 02:32:12;;;;;;;;;;;10.70;99.90;;;;;;5041585;28;19925;-76
2023/05/27 02:34:38;;;;;;;;;;;10.70;99.90;;;;;;5042199;28;19932;-75
2023/05/27 02:37:04;;;;;;;;;;;10.70;99.90;;;;;;5041445;28;20375;-75
2023/05/27 02:39:30;;;;;;;;;;;10.80;99.90;;;;;;5029689;28;19976;-75
2023/05/27 02:41:55;;;;;;;;;;;10.80;99.90;;;;;;5047274;28;19968;-76
2023/05/27 02:44:21;;;;;;;;;;;10.80;99.90;;;;;;5035229;28;19974;-75
2023/05/27 02:46:46;;;;;;;;;;;10.80;99.90;;;;;;5035219;28;20017;-76
2023/05/27 02:49:12;;;;;;;;;;;10.80;99.90;;;;;;5041235;28;19926;-75
2023/05/27 02:51:37;;;;;;;;;;;10.80;99.90;;;;;;5028685;28;19968;-76
2023/05/27 02:54:03;;;;;;;;;;;10.90;99.90;;;;;;5010932;28;19937;-75
2023/05/27 02:56:28;;;;;;;;;;;10.90;99.90;;;;;;5028775;28;19960;-75
2023/05/27 02:58:54;;;;;;;;;;;10.90;99.90;;;;;;5011630;28;19945;-75
2023/05/27 03:01:19;;;;;;;;;;;10.90;99.90;;;;;;5031860;28;19925;-75
2023/05/27 03:03:46;;;;;;;;;;;10.90;99.90;;;;;;5032469;28;19925;-75
2023/05/27 03:06:11;;;;;;;;;;;10.90;99.90;;;;;;5032547;28;19929;-75
2023/05/27 03:08:37;;;;;;;;;;;10.90;99.90;;;;;;5026875;28;20638;-75
2023/05/27 03:11:02;;;;;;;;;;;10.90;99.90;;;;;;5025789;28;20621;-75
2023/05/27 03:13:28;;;;;;;;;;;10.90;99.90;;;;;;5049595;28;19931;-75
2023/05/27 03:15:54;;;;;;;;;;;10.80;99.90;;;;;;5049942;28;20402;-75
2023/05/27 03:18:20;;;;;;;;;;;10.80;99.90;;;;;;5048459;28;20047;-75
2023/05/27 03:20:46;;;;;;;;;;;10.80;99.90;;;;;;5021464;28;19933;-75
2023/05/27 03:23:11;;;;;;;;;;;10.80;99.90;;;;;;5048100;28;19936;-75
2023/05/27 03:25:37;;;;;;;;;;;10.70;99.90;;;;;;5039064;28;19952;-75
2023/05/27 03:28:03;;;;;;;;;;;10.70;99.90;;;;;;5043804;28;19925;-75
2023/05/27 03:30:28;;;;;;;;;;;10.70;99.90;;;;;;5031436;28;19979;-75
2023/05/27 03:32:54;;;;;;;;;;;10.60;99.90;;;;;;5031278;28;19929;-75
2023/05/27 03:35:19;;;;;;;;;;;10.60;99.90;;;;;;5031737;28;20295;-75
2023/05/27 03:37:45;;;;;;;;;;;10.50;99.90;;;;;;5047672;28;19925;-75
2023/05/27 03:40:11;;;;;;;;;;;10.50;99.90;;;;;;5050260;28;20019;-75
2023/05/27 03:42:38;;;;;;;;;;;10.50;99.90;;;;;;5013691;28;20027;-75
2023/05/27 03:45:04;;;;;;;;;;;10.50;99.90;;;;;;5031765;28;19924;-75
2023/05/27 03:47:29;;;;;;;;;;;10.50;99.90;;;;;;5013503;28;19924;-75
2023/05/27 03:49:55;;;;;;;;;;;10.60;99.90;;;;;;5031186;28;20012;-76
2023/05/27 03:52:20;;;;;;;;;;;10.50;99.90;;;;;;5046975;28;20336;-75
2023/05/27 03:54:46;;;;;;;;;;;10.60;99.90;;;;;;5049778;28;19925;-76
2023/05/27 03:57:12;;;;;;;;;;;10.60;99.90;;;;;;5047546;28;19924;-75
2023/05/27 03:59:37;;;;;;;;;;;10.60;99.90;;;;;;5027097;28;19979;-76
2023/05/27 04:02:03;;;;;;;;;;;10.70;99.90;;;;;;5042278;28;19972;-75
2023/05/27 04:04:28;;;;;;;;;;;10.70;99.90;;;;;;5031786;28;20284;-75
2023/05/27 04:06:55;;;;;;;;;;;10.70;99.90;;;;;;5012570;28;20317;-76
2023/05/27 04:09:21;;;;;;;;;;;10.70;99.90;;;;;;5013191;28;19925;-75
2023/05/27 04:11:46;;;;;;;;;;;10.70;99.90;;;;;;5002118;28;19948;-75
2023/05/27 04:14:12;;;;;;;;;;;10.70;99.90;;;;;;5021227;28;19936;-76
2023/05/27 04:16:37;;;;;;;;;;;10.70;99.90;;;;;;5025296;28;19964;-76
2023/05/27 04:19:03;;;;;;;;;;;10.70;99.90;;;;;;5013736;28;19926;-75
2023/05/27 04:21:28;;;;;;;;;;;10.70;99.90;;;;;;5013509;28;19925;-75
2023/05/27 04:23:54;;;;;;;;;;;10.80;99.90;;;;;;5013019;28;19980;-76
2023/05/27 04:26:20;;;;;;;;;;;10.80;99.90;;;;;;5012835;28;19964;-75
2023/05/27 04:28:46;;;;;;;;;;;10.80;99.90;;;;;;5031007;28;20413;-76
2023/05/27 04:31:12;;;;;;;;;;;10.90;99.90;;;;;;5045181;28;19925;-75
2023/05/27 04:33:46;;;;;;;;;;;10.90;99.90;;;;;;5005759;28;19925;-75
2023/05/27 04:36:12;;;;;;;;;;;11.00;99.90;;;;;;5012827;28;19929;-75
2023/05/27 04:38:38;;;;;;;;;;;11.00;99.90;;;;;;5030568;28;19925;-75
2023/05/27 04:41:04;;;;;;;;;;;11.10;99.90;;;;;;5012596;28;20648;-76
2023/05/27 04:43:30;;;;;;;;;;;11.20;99.90;;;;;;5012307;28;19925;-75
2023/05/27 04:45:56;;;;;;;;;;;11.30;99.90;;;;;;5030731;28;19929;-75
2023/05/27 04:48:23;;;;;;;;;;;11.40;99.90;;;;;;5030475;28;20298;-76
2023/05/27 04:50:53;;;;;;;;;;;11.50;99.90;;;;;;5013302;28;19961;-76
2023/05/27 04:53:18;;;;;;;;;;;11.50;99.90;;;;;;5030017;28;20034;-75
2023/05/27 04:55:45;;;;;;;;;;;11.60;99.90;;;;;;5030006;28;19929;-76
2023/05/27 04:58:10;;;;;;;;;;;11.70;99.90;;;;;;5031345;28;19955;-76
2023/05/27 05:00:38;;;;;;;;;;;11.70;99.90;;;;;;5019926;28;20028;-76
2023/05/27 05:03:05;;;;;;;;;;;11.70;99.90;;;;;;5013775;28;19925;-75
2023/05/27 05:05:31;;;;;;;;;;;11.70;99.90;;;;;;5011431;28;19933;-76
2023/05/27 05:07:57;;;;;;;;;;;11.80;99.90;;;;;;5024623;28;20330;-75
2023/05/27 05:10:22;;;;;;;;;;;11.70;99.90;;;;;;5027927;28;19972;-75
2023/05/27 05:12:48;;;;;;;;;;;11.70;99.90;;;;;;5036580;28;19929;-75
2023/05/27 05:15:14;;;;;;;;;;;11.70;99.90;;;;;;5042154;28;19932;-75
2023/05/27 05:17:39;;;;;;;;;;;11.70;99.90;;;;;;5029645;28;19936;-75
2023/05/27 05:20:05;;;;;;;;;;;11.60;99.90;;;;;;5011428;28;19982;-76
2023/05/27 05:22:31;;;;;;;;;;;11.60;99.90;;;;;;5024682;28;20559;-76
2023/05/27 05:24:57;;;;;;;;;;;11.70;99.90;;;;;;5029824;28;19925;-75
2023/05/27 05:27:23;;;;;;;;;;;11.70;99.90;;;;;;5029833;28;19979;-75
2023/05/27 05:29:48;;;;;;;;;;;11.70;99.90;;;;;;5029065;28;20307;-75
2023/05/27 05:32:14;;;;;;;;;;;11.70;99.90;;;;;;5007438;28;19958;-76
2023/05/27 05:34:39;;;;;;;;;;;11.70;99.90;;;;;;5011984;28;19929;-76
2023/05/27 05:37:06;;;;;;;;;;;11.80;99.90;;;;;;5028830;28;20805;-76
2023/05/27 05:39:32;;;;;;;;;;;11.80;99.90;;;;;;5034076;28;20399;-72
2023/05/27 05:41:57;;;;;;;;;;;11.80;99.90;;;;;;5019534;28;19925;-74
2023/05/27 05:44:23;;;;;;;;;;;11.80;99.90;;;;;;5030202;28;19925;-75
2023/05/27 05:46:49;;;;;;;;;;;11.70;99.90;;;;;;5019238;28;19932;-76
2023/05/27 05:49:15;;;;;;;;;;;11.70;99.90;;;;;;5029133;28;19925;-76
2023/05/27 05:51:41;;;;;;;;;;;11.70;99.90;;;;;;5023751;28;20383;-75
2023/05/27 05:54:06;;;;;;;;;;;11.70;99.90;;;;;;5029444;28;20131;-76
2023/05/27 05:56:32;;;;;;;;;;;11.80;99.90;;;;;;5030058;28;19975;-76
2023/05/27 05:58:58;;;;;;;;;;;11.80;99.90;;;;;;5017300;28;19932;-76
2023/05/27 06:01:26;;;;;;;;;;;11.90;99.90;;;;;;5030935;28;19925;-76
2023/05/27 06:03:52;;;;;;;;;;;11.90;99.90;;;;;;5048444;28;19925;-75
2023/05/27 06:06:18;;;;;;;;;;;12.00;99.90;;;;;;5031116;28;19932;-76
2023/05/27 06:08:43;;;;;;;;;;;12.00;99.90;;;;;;5024380;28;20415;-76
2023/05/27 06:11:10;;;;;;;;;;;12.00;99.90;;;;;;5035577;28;20015;-76
2023/05/27 06:13:35;;;;;;;;;;;12.00;99.90;;;;;;5008779;28;19932;-75
2023/05/27 06:16:01;;;;;;;;;;;12.10;99.90;;;;;;5024240;28;19925;-76
2023/05/27 06:18:26;;;;;;;;;;;12.10;99.90;;;;;;5041150;28;20311;-76
2023/05/27 06:20:52;;;;;;;;;;;12.20;99.90;;;;;;5043660;28;19925;-76
2023/05/27 06:23:17;;;;;;;;;;;12.30;99.90;;;;;;5043490;28;19947;-75
2023/05/27 06:25:43;;;;;;;;;;;12.30;99.90;;;;;;5025079;28;19932;-76
2023/05/27 06:28:08;;;;;;;;;;;12.40;99.90;;;;;;5036094;28;19932;-76
2023/05/27 06:30:35;;;;;;;;;;;12.40;99.90;;;;;;5043487;28;19935;-75
2023/05/27 06:33:01;;;;;;;;;;;12.40;99.90;;;;;;5039555;28;20395;-75
2023/05/27 06:35:26;;;;;;;;;;;12.50;99.90;;;;;;5030250;28;19929;-77
2023/05/27 06:37:52;;;;;;;;;;;12.50;99.90;;;;;;5046454;28;20383;-78
2023/05/27 06:40:17;;;;;;;;;;;12.60;99.90;;;;;;5024780;28;19939;-77
2023/05/27 06:42:44;;;;;;;;;;;12.60;99.90;;;;;;5039412;28;19924;-77
2023/05/27 06:45:10;;;;;;;;;;;12.60;99.90;;;;;;5039738;28;19935;-77
2023/05/27 06:47:35;;;;;;;;;;;12.70;99.90;;;;;;5024276;28;20335;-77
2023/05/27 06:50:01;;;;;;;;;;;12.70;99.90;;;;;;5047160;28;19932;-77
2023/05/27 06:52:26;;;;;;;;;;;12.80;99.90;;;;;;5010244;28;19929;-77
2023/05/27 06:54:52;;;;;;;;;;;12.80;99.90;;;;;;5048872;28;20008;-77
2023/05/27 06:57:17;;;;;;;;;;;12.80;99.90;;;;;;5048062;28;19929;-75
2023/05/27 06:59:43;;;;;;;;;;;12.80;99.90;;;;;;5047122;28;20007;-77
2023/05/27 07:02:09;;;;;;;;;;;12.90;99.90;;;;;;5044185;28;19929;-77
2023/05/27 07:04:34;;;;;;;;;;;12.90;99.90;;;;;;5048199;28;20047;-78
2023/05/27 07:06:59;;;;;;;;;;;13.00;99.90;;;;;;5035277;28;19933;-75
2023/05/27 07:09:25;;;;;;;;;;;13.00;99.90;;;;;;5028049;28;19940;-76
2023/05/27 07:11:51;;;;;;;;;;;13.10;99.90;;;;;;5042595;28;19944;-76
2023/05/27 07:14:16;;;;;;;;;;;13.10;99.90;;;;;;5024025;28;19928;-76
2023/05/27 07:16:42;;;;;;;;;;;13.20;99.90;;;;;;5044902;28;20011;-76
2023/05/27 07:19:07;;;;;;;;;;;13.20;99.90;;;;;;5048812;28;19925;-77
2023/05/27 07:21:33;;;;;;;;;;;13.20;99.90;;;;;;5044450;28;19925;-76
2023/05/27 07:24:02;;;;;;;;;;;13.20;99.90;;;;;;5046641;28;19932;-75
2023/05/27 07:26:28;;;;;;;;;;;13.20;99.90;;;;;;5043627;28;19936;-76
2023/05/27 07:28:53;;;;;;;;;;;13.30;99.90;;;;;;5047638;28;19929;-75
2023/05/27 07:31:19;;;;;;;;;;;13.50;99.90;;;;;;5047194;28;20008;-75
2023/05/27 07:33:45;;;;;;;;;;;13.60;99.90;;;;;;5041193;28;19955;-75
2023/05/27 07:36:10;;;;;;;;;;;13.70;99.90;;;;;;5041457;28;20280;-76
2023/05/27 07:38:36;;;;;;;;;;;13.80;99.90;;;;;;5042197;28;19929;-76
2023/05/27 07:41:01;;;;;;;;;;;13.80;99.90;;;;;;5024081;28;19924;-76
2023/05/27 07:43:27;;;;;;;;;;;14.00;99.90;;;;;;5049060;28;19929;-75
2023/05/27 07:45:52;;;;;;;;;;;14.00;99.90;;;;;;5047201;28;19925;-76
2023/05/27 07:48:18;;;;;;;;;;;14.10;99.90;;;;;;5042741;28;19925;-75
2023/05/27 07:50:43;;;;;;;;;;;14.10;99.90;;;;;;5038052;28;19929;-75
2023/05/27 07:53:09;;;;;;;;;;;14.20;99.90;;;;;;5042693;28;19964;-76
2023/05/27 07:55:34;;;;;;;;;;;14.20;99.90;;;;;;5036851;28;20575;-75
2023/05/27 07:58:00;;;;;;;;;;;14.30;99.90;;;;;;5039081;28;20027;-75
2023/05/27 08:00:25;;;;;;;;;;;14.30;99.90;;;;;;5040713;28;20320;-75
2023/05/27 08:02:51;;;;;;;;;;;14.40;99.90;;;;;;5043526;28;19924;-75
2023/05/27 08:05:17;;;;;;;;;;;14.40;99.90;;;;;;5041045;28;19925;-75
2023/05/27 08:07:42;;;;;;;;;;;14.50;99.90;;;;;;5048327;28;19925;-75
2023/05/27 08:10:08;;;;;;;;;;;14.50;99.90;;;;;;5040453;28;19929;-76
2023/05/27 08:12:33;;;;;;;;;;;14.60;99.90;;;;;;5032240;28;19925;-76
2023/05/27 08:14:59;;;;;;;;;;;14.60;99.90;;;;;;5029224;28;19929;-76
2023/05/27 08:17:24;;;;;;;;;;;14.70;99.90;;;;;;5030637;28;20319;-76
2023/05/27 08:19:50;;;;;;;;;;;14.80;99.90;;;;;;5030441;28;19925;-75
2023/05/27 08:22:15;;;;;;;;;;;14.90;99.90;;;;;;5031636;28;20370;-76
2023/05/27 08:24:41;;;;;;;;;;;15.00;99.90;;;;;;5012606;28;19929;-75
2023/05/27 08:27:14;;;;;;;;;;;15.00;99.90;;;;;;5010761;28;20008;-76
2023/05/27 08:29:39;;;;;;;;;;;15.10;99.90;;;;;;5012314;28;20540;-75
2023/05/27 08:32:05;;;;;;;;;;;15.10;99.90;;;;;;5022636;28;19925;-76
2023/05/27 08:34:31;;;;;;;;;;;15.10;99.90;;;;;;5031671;28;20401;-76
2023/05/27 08:36:56;;;;;;;;;;;15.20;99.90;;;;;;5030861;28;19929;-76
2023/05/27 08:39:22;;;;;;;;;;;15.20;99.90;;;;;;5030095;28;20023;-76
2023/05/27 08:41:48;;;;;;;;;;;15.30;99.90;;;;;;5038588;28;20020;-76
2023/05/27 08:44:13;;;;;;;;;;;15.30;99.90;;;;;;5015920;28;19994;-76
2023/05/27 08:46:39;;;;;;;;;;;15.30;99.90;;;;;;5030201;28;19991;-77
2023/05/27 08:49:06;;;;;;;;;;;15.40;99.90;;;;;;5027860;28;19929;-76
2023/05/27 08:51:32;;;;;;;;;;;15.50;99.90;;;;;;5014365;28;20030;-77
2023/05/27 08:53:58;;;;;;;;;;;15.50;99.90;;;;;;5031207;28;19933;-77
2023/05/27 08:56:25;;;;;;;;;;;15.60;99.90;;;;;;5016504;28;19925;-76
2023/05/27 08:58:51;;;;;;;;;;;15.70;99.90;;;;;;5018846;28;19940;-76
2023/05/27 09:01:17;;;;;;;;;;;15.80;99.90;;;;;;5038246;28;19933;-76
2023/05/27 09:03:44;;;;;;;;;;;15.90;99.90;;;;;;5015176;28;19941;-76
2023/05/27 09:06:09;;;;;;;;;;;16.00;99.90;;;;;;5020248;28;20401;-76
2023/05/27 09:08:35;;;;;;;;;;;16.10;99.90;;;;;;5000498;28;19925;-76
2023/05/27 09:11:00;;;;;;;;;;;16.20;99.90;;;;;;5035822;28;19935;-77
2023/05/27 09:13:29;;;;;;;;;;;16.20;99.90;;;;;;5006123;28;20509;-76
2023/05/27 09:15:59;;;;;;;;;;;16.30;99.90;;;;;;5023239;28;19929;-76
2023/05/27 09:18:26;;;;;;;;;;;16.40;99.90;;;;;;5011948;28;20032;-76
2023/05/27 09:20:53;;;;;;;;;;;16.50;99.90;;;;;;5024521;28;20006;-76
2023/05/27 09:23:18;;;;;;;;;;;16.60;99.90;;;;;;4994910;28;20369;-76
2023/05/27 09:25:44;;;;;;;;;;;16.70;99.90;;;;;;5015110;28;20048;-77
2023/05/27 09:28:10;;;;;;;;;;;16.80;99.90;;;;;;5008069;28;19925;-77
2023/05/27 09:30:35;;;;;;;;;;;17.00;99.90;;;;;;5005010;28;20433;-77
2023/05/27 09:33:04;;;;;;;;;;;17.30;99.90;;;;;;5029238;28;19925;-77
2023/05/27 09:35:30;;;;;;;;;;;17.60;99.90;;;;;;5028539;28;20016;-77
2023/05/27 09:38:05;;;;;;;;;;;17.90;99.90;;;;;;5029962;28;20364;-77
2023/05/27 09:40:30;;;;;;;10.25;3.28;;;18.20;99.90;;;;;;5026341;28;20533;-77
2023/05/27 09:42:57;;;;;;;14.60;3.97;;;18.50;99.90;;;;;;5009877;28;20439;-74
2023/05/27 09:45:23;;;;;;;13.67;4.60;;;18.60;99.90;;;;;;5032310;28;20399;-76
2023/05/27 09:47:53;;;;;;;12.80;3.90;;;18.80;99.90;;;;;;5026937;28;20921;-74
2023/05/27 09:50:20;;;;;;;13.55;4.28;;;18.90;99.90;;;;;;5009201;28;20430;-76
2023/05/27 09:52:47;;;;;;;13.75;4.07;;;19.10;99.90;;;;;;5028792;28;20396;-76
2023/05/27 09:55:13;;;;;;;15.23;4.23;;;19.30;99.90;;;;;;5009810;28;20407;-77
2023/05/27 09:57:42;;;;;;;;;;;19.40;99.90;;;;;;5029788;28;20042;-77
2023/05/27 10:00:11;;;;;;;;;;;19.70;99.90;;;;;;5029688;28;20354;-77
2023/05/27 10:02:38;;;;;;;;;;;19.90;99.90;;;;;;5029426;28;20011;-77
2023/05/27 10:05:07;;;;;;;;;;;20.10;99.90;;;;;;5012409;28;20423;-77
2023/05/27 10:07:40;;;;;;;;;;;20.20;99.90;;;;;;5029658;28;20410;-77
2023/05/27 10:10:08;;;;;;;;;;;20.30;99.90;;;;;;4998644;28;19959;-76
2023/05/27 10:12:34;;;;;;;;;;;20.40;99.90;;;;;;5044204;28;20377;-77
2023/05/27 10:15:00;;;;;;;;;;;20.60;99.90;;;;;;5016231;28;19921;-77
2023/05/27 10:17:25;;;;;;;;;;;20.70;99.90;;;;;;5016012;28;19924;-76
2023/05/27 10:19:56;;;;;;;;;;;20.80;99.50;;;;;;5015073;28;20378;-77
2023/05/27 10:22:22;;;;;;;;;;;20.70;99.00;;;;;;5032409;28;19931;-77
2023/05/27 10:24:52;;;;;;;;;;;20.70;99.40;;;;;;5015559;28;20367;-77
2023/05/27 10:27:18;;;;;;;;;;;21.00;99.50;;;;;;5032873;28;19928;-77
2023/05/27 10:29:44;;;;;;;;;;;21.30;98.60;;;;;;5015916;28;19921;-77
2023/05/27 10:32:09;;;;;;;;;;;21.50;98.50;;;;;;5015337;28;20020;-77
2023/05/27 10:34:42;;;;;;;;;;;21.60;96.80;;;;;;5012769;28;20284;-77
2023/05/27 10:37:07;;;;;;;;;;;21.70;96.90;;;;;;5032516;28;19921;-77
2023/05/27 10:39:33;;;;;;;;;;;21.70;97.10;;;;;;5015572;28;19982;-77
2023/05/27 10:41:59;;;;;;;;;;;21.80;97.10;;;;;;5039368;28;19952;-77
2023/05/27 10:44:37;;;;;;;;;;;21.80;97.20;;;;;;5030861;28;19943;-77
2023/05/27 10:47:03;;;;;;;;;;;21.80;96.30;;;;;;5035595;28;19924;-76
2023/05/27 10:49:35;;;;;;;;;;;22.00;97.00;;;;;;5014944;28;20387;-77
2023/05/27 10:52:12;;;;;;;;;;;22.10;95.90;;;;;;5015003;28;19927;-77
2023/05/27 10:54:38;;;;;;;;;;;22.20;95.80;;;;;;5009356;28;19925;-77
2023/05/27 10:57:04;;;;;;;;;;;22.30;96.10;;;;;;5011502;28;19951;-77
2023/05/27 10:59:49;;;;;;;13.73;4.03;;;22.50;94.90;;;;;;5015023;28;20828;-77
2023/05/27 11:02:16;;;;;;;13.65;4.43;;;22.60;95.90;;;;;;5022198;28;20421;-77
2023/05/27 11:04:42;;;;;;;14.82;4.35;;;22.70;96.00;;;;;;5027031;28;20467;-77
2023/05/27 11:07:08;;;;;;;14.40;4.72;;;22.90;95.00;;;;;;5019710;28;20403;-77
2023/05/27 11:09:47;;;;;;;14.32;4.57;;;23.10;95.30;;;;;;5045633;28;20408;-77
2023/05/27 11:12:17;;;;;;;12.18;4.47;;;23.10;94.50;;;;;;5021948;28;20465;-77
2023/05/27 11:14:53;;;;;;;13.77;4.90;;;23.10;94.30;;;;;;5004493;28;20415;-77
2023/05/27 11:17:20;;;;;;;13.60;5.00;;;23.10;94.70;;;;;;5020846;28;20471;-77
2023/05/27 11:19:45;;;;;;;13.77;5.07;;;23.10;94.00;;;;;;5024790;28;20519;-77
2023/05/27 11:22:12;;;;;;;14.55;4.88;;;23.10;94.10;;;;;;5043242;28;20512;-77
2023/05/27 11:24:38;;;;;;;14.68;4.75;;;23.20;94.00;;;;;;5040303;28;20405;-77
2023/05/27 11:27:14;;;;;;;14.15;4.70;;;23.40;94.10;;;;;;5043199;28;20405;-77
2023/05/27 11:29:48;;;;;;;14.60;3.85;;;23.50;94.90;;;;;;5042682;28;20420;-77
2023/05/27 11:32:16;;;;;;;;;;;23.70;94.50;;;;;;5025630;28;20136;-77
2023/05/27 11:34:43;;;;;;;;;;;23.60;94.30;;;;;;5018771;28;19921;-76
2023/05/27 11:37:09;;;;;;;;;;;23.60;94.30;;;;;;5017843;28;19928;-77
2023/05/27 11:39:34;;;;;;;;;;;23.60;94.30;;;;;;5035906;28;20531;-75
2023/05/27 11:42:04;;;;;;;;;;;23.60;94.50;;;;;;5035938;28;19920;-75
2023/05/27 11:44:30;;;;;;;;;;;23.70;94.20;;;;;;5027669;28;19921;-76
2023/05/27 11:47:01;;;;;;;;;;;23.80;93.90;;;;;;5012986;28;19921;-77
2023/05/27 11:49:27;;;;;;;;;;;23.80;93.80;;;;;;5025729;28;19928;-77
2023/05/27 11:51:54;;;;;;;;;;;23.70;93.50;;;;;;5031367;28;20314;-77
2023/05/27 11:54:22;;;;;;;;;;;23.60;94.10;;;;;;5023982;28;19921;-77
2023/05/27 11:56:48;;;;;;;;;;;23.60;94.70;;;;;;5023611;28;20378;-77
2023/05/27 11:59:13;;;;;;;;;;;23.70;94.30;;;;;;4997171;28;19964;-77
2023/05/27 12:01:43;;;;;;;16.77;3.50;;;23.90;93.50;;;;;;5013050;28;19984;-77
2023/05/27 12:04:09;;;;;;;14.20;4.00;;;23.90;93.40;;;;;;5004205;28;20401;-77
2023/05/27 12:06:36;;;;;;;14.57;4.00;;;23.90;94.30;;;;;;5029431;28;20422;-78
2023/05/27 12:09:05;;;;;;;13.63;3.67;;;23.90;94.70;;;;;;5027417;28;20415;-77
2023/05/27 12:11:31;;;;;;;12.25;3.67;;;24.10;94.70;;;;;;4995562;28;20419;-77
2023/05/27 12:13:57;;;;;;;14.85;4.25;;;24.10;93.60;;;;;;5028328;28;20430;-77
2023/05/27 12:16:23;;;;;;;13.47;3.73;;;24.00;93.70;;;;;;5011382;28;20964;-76
2023/05/27 12:18:49;;;;;;;15.60;3.95;;;24.00;93.70;;;;;;5011634;28;20399;-77
2023/05/27 12:21:15;;;;;;;15.67;3.70;;;24.10;93.30;;;;;;5028016;28;20468;-77
2023/05/27 12:23:41;;;;;;;14.40;3.90;;;23.90;93.50;;;;;;5024283;28;20878;-77
2023/05/27 12:26:07;;;;;;;16.38;4.40;;;23.80;93.80;;;;;;5007585;28;20427;-77
2023/05/27 12:28:32;;;;;;;13.70;4.13;;;23.90;93.60;;;;;;5029456;28;20399;-77
2023/05/27 12:30:58;;;;;;;15.90;4.10;;;23.90;93.50;;;;;;5028351;28;20419;-77
2023/05/27 12:33:24;;;;;;;14.48;4.45;;;24.00;94.00;;;;;;5028961;28;20461;-77
2023/05/27 12:35:51;;;;;;;14.40;3.58;;;24.10;93.20;;;;;;5018869;28;20839;-78
2023/05/27 12:38:17;;;;;;;14.90;4.13;;;24.10;92.90;;;;;;5028584;28;20458;-77
2023/05/27 12:40:42;;;;;;;14.73;3.67;;;24.00;92.70;;;;;;5010255;28;20415;-77
2023/05/27 12:43:08;;;;;;;14.00;3.85;;;24.10;92.40;;;;;;5011378;28;20404;-78
2023/05/27 12:45:34;;;;;;;13.97;4.23;;;24.20;91.90;;;;;;5028344;28;20403;-78
2023/05/27 12:48:00;;;;;;;15.27;4.22;;;24.10;92.50;;;;;;5028706;28;20407;-77
2023/05/27 12:50:26;;;;;;;14.30;3.97;;;24.10;92.30;;;;;;5026945;28;20419;-77
2023/05/27 12:52:52;;;;;;;14.18;3.92;;;24.20;92.80;;;;;;5011316;28;20406;-77
2023/05/27 12:55:19;;;;;;;13.38;3.65;;;24.40;93.00;;;;;;5027907;28;20403;-77
2023/05/27 12:57:47;;;;;;;11.90;3.60;;;24.50;92.20;;;;;;5010396;28;20438;-77
2023/05/27 13:00:13;;;;;;;15.27;4.30;;;24.50;91.90;;;;;;4983948;28;20520;-77
2023/05/27 13:02:39;;;;;;;14.18;3.70;;;24.50;91.60;;;;;;5010935;28;20457;-77
2023/05/27 13:05:06;;;;;;;13.73;4.03;;;24.40;91.80;;;;;;4994442;28;20411;-77
2023/05/27 13:07:33;;;;;;;15.18;3.92;;;24.30;91.30;;;;;;5028484;28;20415;-77
2023/05/27 13:10:08;;;;;;;16.42;4.28;;;24.20;91.20;;;;;;5009199;28;20411;-77
2023/05/27 13:12:34;;;;;;;14.00;3.97;;;24.10;90.80;;;;;;5010327;28;20964;-77
2023/05/27 13:15:03;;;;;;;15.27;4.13;;;24.10;92.10;;;;;;5027603;28;20429;-77
2023/05/27 13:17:29;;;;;;;17.60;4.00;;;24.20;91.20;;;;;;5010611;28;20427;-77
2023/05/27 13:19:55;;;;;;;13.93;3.92;;;24.20;91.10;;;;;;5010310;28;20465;-77
2023/05/27 13:22:21;;;;;;;15.75;4.05;;;24.30;90.90;;;;;;5027165;28;20403;-77
2023/05/27 13:24:47;;;;;;;16.10;4.45;;;24.30;91.00;;;;;;5027900;28;20486;-77
2023/05/27 13:27:12;;;;;;;13.35;3.65;;;24.30;91.30;;;;;;5028272;28;20407;-77
2023/05/27 13:29:40;;;;;;;12.60;3.50;;;24.50;91.20;;;;;;5009477;28;20434;-77
2023/05/27 13:32:06;;;;;;;17.52;4.43;;;24.60;90.90;;;;;;5028052;28;20443;-77
2023/05/27 13:34:31;;;;;;;14.75;3.97;;;24.50;90.80;;;;;;5026187;28;20458;-78
2023/05/27 13:36:57;;;;;;;14.90;3.70;;;24.50;90.90;;;;;;5008466;28;20442;-78
2023/05/27 13:39:23;;;;;;;14.30;4.07;;;24.60;90.80;;;;;;5026645;28;20423;-78
2023/05/27 13:41:49;;;;;;;12.53;3.57;;;24.80;90.50;;;;;;5008969;28;20411;-80
2023/05/27 13:44:15;;;;;;;16.13;3.90;;;24.70;89.60;;;;;;5024944;28;20781;-78
2023/05/27 13:46:41;;;;;;;13.82;4.13;;;24.60;90.30;;;;;;5008855;28;20502;-78
2023/05/27 13:49:07;;;;;;;16.33;4.43;;;24.70;90.60;;;;;;5009886;28;20525;-78
2023/05/27 13:51:33;;;;;;;14.47;4.07;;;24.80;90.50;;;;;;5009171;28;20864;-77